Pingyao, China
Current Conditions -  °F | °C
As of 1:30 PM on Friday 28 Nov 2014 (Local Time) from ZBYN Reporting Station
Haze Haze  
Wind Chill: 45°   Ceiling: Unl
Heat Index: 45°   Visibility: 1.2mi
Dew Point: 23°   Wind: 2mph
Humidity: 43%   Direction: 100°E
Pressure: 30.03"   Gusts: NA
Location:  37.21°N, 112.17°E
Report Text: ZBYN 280530Z 10001MPS 2000 HZ NSC 07/M05 Q1017 BECMG TL06203000
Loading
Personal Weather Stations






























Interactive Weather Map New forecast layout! Learn more

10-Day Weather Forecast

Advertisements
Track Severe Weather on mobile